22:43
Airports
History
Links
Donate
Help keep this website running!
PayPal
Bitcoin
This page is community maintained. The information is intended for PC simulator navigation or reference.
Always use approved charts for navigation.
USHH
KHANTY MANSIYSK
KHANTY MANSIYSK (USHH)
Khanty-Mansiysk, Khanty-Mansiyskiy avtonomnyy o, Russian Federation (628010)
(C)
Lat/Lng:61° 1' 42.54" N / 69° 5' 9.84" E
61.028482 / 69.086067
Elevation:141'ft / 43mMSL
ID / ICAO:USHH
Runways:1
Longest:(06-24) 2,784.2m / 9,135ft Asphalt
Controlled:Yes
Distance To
Airport ID:
Airport Radio Frequencies
Tower: 118.1
Nearby VORs <50NM
Nearby NDBs
METARUpdated 08-22-17 22:30 GMT
Altimeter: 30.21
Visibility: 6.2 statute miles
Wind: 1.9 knots (250°)
Temp: 15°c 59°f
Humidity: 93.7%

METAR: USHH 222230Z 25001MPS CAVOK 15/14 Q1023 R06/010060 TEMPO 1000 BR SCT004 RMK QFE763

(Powered by phpweather)
Runway 06 / 24
Dimensions:2784.2 x 45.1m 9135' x 148'ft
Surface:Asphalt
Edge Lights:High intensity
Runway 06 [A]Runway 24 [B]
Heading:075°TH 255°TH
Lat:
Lng:
61° 1' 31.12"N
69° 3' 39.65"E
61° 1' 53.95"N
69° 6' 40.03"E
ALS:CalvertCalvert
User Notes and Comments
Google Map
Nearby Airports
(C) SURGUT 145.3 NM
USRR (WX) E 81°
(C) KOGALYM 196.1 NM
USRK ENE 65°
(C) NIZHNEVARTOVSK 247.8 NM
USNN E 91°
(C) Plekhanovo 297.5 NM
USTL SSW 205°
(C) Roschino 297.5 NM
USTR SSW 206°
(C) SALEKHARD 391.6 NM
USDD NNW 348°
(C) KOLTSOVO 417.9 NM
USSS (WX) SW 224°
VFR Chart
Flight Planning at SkyVector.com